Nephi, Utah
Current Conditions -  °F | °C
As of 6:49 AM on Friday 31 Oct 2014 (Local Time) from KPVU Reporting Station
Scattered Clouds Scattered Clouds  
Wind Chill: 45°   Ceiling: Unl
Heat Index: 45°   Visibility: 15mi
Dew Point: 30°   Wind: 0mph
Humidity: 57%   Direction: NA
Pressure: 30.07"   Gusts: NA
Location:  39.71°N, 111.84°W
Report Text: KPVU 311249Z 00000KT 15SM SCT180 07/M01 A3007
Loading
Personal Weather Stations






























Interactive Weather Map
Tropical Storm Tracking
New forecast layout! Learn more

10-Day Weather Forecast

Advertisements
Track Severe Weather on mobile